sensor_id;sensor_type;location;lat;lon;timestamp;P1;durP1;ratioP1;P2;durP2;ratioP2
1887;SDS011;944;51.574;6.980;2023-04-24T06:40:12;16.90;;;11.90;;
1887;SDS011;944;51.574;6.980;2023-04-24T06:42:39;17.30;;;12.10;;
1887;SDS011;944;51.574;6.980;2023-04-24T06:45:07;16.20;;;11.57;;
1887;SDS011;944;51.574;6.980;2023-04-24T06:47:38;17.13;;;11.90;;
1887;SDS011;944;51.574;6.980;2023-04-24T06:50:06;18.63;;;11.83;;
1887;SDS011;944;51.574;6.980;2023-04-24T06:52:35;17.90;;;11.83;;
1887;SDS011;944;51.574;6.980;2023-04-24T06:55:02;16.43;;;11.40;;
1887;SDS011;944;51.574;6.980;2023-04-24T06:57:30;14.27;;;10.63;;
1887;SDS011;944;51.574;6.980;2023-04-24T07:00:00;14.17;;;10.80;;
1887;SDS011;944;51.574;6.980;2023-04-24T07:02:28;14.97;;;10.20;;
1887;SDS011;944;51.574;6.980;2023-04-24T07:04:58;16.03;;;10.87;;
1887;SDS011;944;51.574;6.980;2023-04-24T07:07:26;14.40;;;10.40;;
1887;SDS011;944;51.574;6.980;2023-04-24T07:09:57;11.90;;;9.00;;
1887;SDS011;944;51.574;6.980;2023-04-24T07:16:09;13.30;;;9.37;;
1887;SDS011;944;51.574;6.980;2023-04-24T07:18:36;19.07;;;9.43;;
1887;SDS011;944;51.574;6.980;2023-04-24T07:21:04;17.27;;;9.50;;
1887;SDS011;944;51.574;6.980;2023-04-24T07:23:34;12.43;;;9.00;;
1887;SDS011;944;51.574;6.980;2023-04-24T07:26:03;11.87;;;8.20;;
1887;SDS011;944;51.574;6.980;2023-04-24T07:28:30;12.27;;;8.53;;
1887;SDS011;944;51.574;6.980;2023-04-24T07:31:00;14.00;;;9.30;;
1887;SDS011;944;51.574;6.980;2023-04-24T07:33:27;11.90;;;7.70;;
1887;SDS011;944;51.574;6.980;2023-04-24T07:35:54;12.03;;;8.57;;
1887;SDS011;944;51.574;6.980;2023-04-24T07:38:21;9.00;;;6.70;;
1887;SDS011;944;51.574;6.980;2023-04-24T07:40:52;12.43;;;7.23;;
1887;SDS011;944;51.574;6.980;2023-04-24T07:43:21;7.20;;;5.83;;
1887;SDS011;944;51.574;6.980;2023-04-24T07:45:56;8.27;;;5.00;;
1887;SDS011;944;51.574;6.980;2023-04-24T07:48:24;5.10;;;3.60;;
1887;SDS011;944;51.574;6.980;2023-04-24T07:50:51;7.43;;;3.53;;
1887;SDS011;944;51.574;6.980;2023-04-24T07:53:25;6.33;;;3.67;;
1887;SDS011;944;51.574;6.980;2023-04-24T07:55:56;4.97;;;3.17;;
1887;SDS011;944;51.574;6.980;2023-04-24T07:58:24;6.67;;;3.67;;
1887;SDS011;944;51.574;6.980;2023-04-24T08:00:51;3.47;;;2.20;;
1887;SDS011;944;51.574;6.980;2023-04-24T08:03:18;4.27;;;2.00;;
1887;SDS011;944;51.574;6.980;2023-04-24T08:05:45;5.90;;;2.30;;
1887;SDS011;944;51.574;6.980;2023-04-24T08:08:12;2.97;;;2.20;;
1887;SDS011;944;51.574;6.980;2023-04-24T08:10:39;2.57;;;2.37;;
1887;SDS011;944;51.574;6.980;2023-04-24T08:13:06;3.37;;;2.40;;
1887;SDS011;944;51.574;6.980;2023-04-24T08:15:40;4.87;;;2.97;;
1887;SDS011;944;51.574;6.980;2023-04-24T08:18:07;8.37;;;3.07;;
1887;SDS011;944;51.574;6.980;2023-04-24T08:20:36;3.90;;;3.30;;
1887;SDS011;944;51.574;6.980;2023-04-24T08:23:04;7.43;;;3.20;;
1887;SDS011;944;51.574;6.980;2023-04-24T08:25:33;10.13;;;3.20;;
1887;SDS011;944;51.574;6.980;2023-04-24T08:28:05;6.10;;;3.50;;
1887;SDS011;944;51.574;6.980;2023-04-24T08:30:35;11.43;;;4.33;;
1887;SDS011;944;51.574;6.980;2023-04-24T08:33:05;4.63;;;3.00;;
1887;SDS011;944;51.574;6.980;2023-04-24T08:35:32;3.70;;;3.40;;
1887;SDS011;944;51.574;6.980;2023-04-24T08:41:41;4.33;;;3.37;;
1887;SDS011;944;51.574;6.980;2023-04-24T08:44:10;4.73;;;3.30;;
1887;SDS011;944;51.574;6.980;2023-04-24T08:46:41;5.00;;;3.70;;
1887;SDS011;944;51.574;6.980;2023-04-24T08:49:11;4.70;;;4.20;;
1887;SDS011;944;51.574;6.980;2023-04-24T08:51:41;4.63;;;4.00;;
1887;SDS011;944;51.574;6.980;2023-04-24T08:54:09;4.47;;;4.07;;
1887;SDS011;944;51.574;6.980;2023-04-24T08:56:37;6.30;;;4.10;;
1887;SDS011;944;51.574;6.980;2023-04-24T08:59:06;4.53;;;3.70;;
1887;SDS011;944;51.574;6.980;2023-04-24T09:01:35;3.90;;;3.50;;
1887;SDS011;944;51.574;6.980;2023-04-24T09:04:04;5.93;;;3.40;;
1887;SDS011;944;51.574;6.980;2023-04-24T09:06:38;3.50;;;3.20;;
1887;SDS011;944;51.574;6.980;2023-04-24T09:09:07;7.20;;;3.17;;
1887;SDS011;944;51.574;6.980;2023-04-24T09:11:36;4.63;;;3.07;;
1887;SDS011;944;51.574;6.980;2023-04-24T09:14:04;4.67;;;2.90;;
1887;SDS011;944;51.574;6.980;2023-04-24T09:16:31;4.57;;;2.93;;
1887;SDS011;944;51.574;6.980;2023-04-24T09:18:58;2.63;;;2.43;;
1887;SDS011;944;51.574;6.980;2023-04-24T09:21:26;3.00;;;2.70;;
1887;SDS011;944;51.574;6.980;2023-04-24T09:24:03;2.27;;;2.07;;
1887;SDS011;944;51.574;6.980;2023-04-24T09:26:34;2.77;;;2.47;;
1887;SDS011;944;51.574;6.980;2023-04-24T09:29:03;4.77;;;2.37;;
1887;SDS011;944;51.574;6.980;2023-04-24T09:31:30;2.50;;;2.30;;
1887;SDS011;944;51.574;6.980;2023-04-24T09:33:58;5.50;;;2.80;;
1887;SDS011;944;51.574;6.980;2023-04-24T09:36:28;4.60;;;3.80;;
1887;SDS011;944;51.574;6.980;2023-04-24T10:04:25;14.80;;;7.63;;
1887;SDS011;944;51.574;6.980;2023-04-24T10:07:02;13.90;;;8.47;;
1887;SDS011;944;51.574;6.980;2023-04-24T10:09:54;16.57;;;8.07;;
1887;SDS011;944;51.574;6.980;2023-04-24T10:56:07;19.03;;;9.93;;
1887;SDS011;944;51.574;6.980;2023-04-24T11:02:41;23.77;;;10.27;;
1887;SDS011;944;51.574;6.980;2023-04-24T11:09:22;25.53;;;10.90;;
1887;SDS011;944;51.574;6.980;2023-04-24T11:12:06;26.27;;;11.40;;
1887;SDS011;944;51.574;6.980;2023-04-24T11:18:52;29.73;;;11.03;;
1887;SDS011;944;51.574;6.980;2023-04-24T11:21:40;25.47;;;10.20;;
1887;SDS011;944;51.574;6.980;2023-04-24T11:24:23;28.93;;;10.33;;
1887;SDS011;944;51.574;6.980;2023-04-24T11:26:56;32.57;;;9.97;;
1887;SDS011;944;51.574;6.980;2023-04-24T11:29:40;27.13;;;10.43;;
1887;SDS011;944;51.574;6.980;2023-04-24T11:32:27;27.17;;;9.67;;
1887;SDS011;944;51.574;6.980;2023-04-24T11:35:03;27.57;;;10.53;;
1887;SDS011;944;51.574;6.980;2023-04-24T11:37:44;22.07;;;9.37;;
1887;SDS011;944;51.574;6.980;2023-04-24T11:40:30;38.67;;;11.20;;
1887;SDS011;944;51.574;6.980;2023-04-24T11:43:29;19.60;;;8.93;;
1887;SDS011;944;51.574;6.980;2023-04-24T11:46:06;23.10;;;7.97;;
1887;SDS011;944;51.574;6.980;2023-04-24T11:48:44;15.97;;;7.50;;
1887;SDS011;944;51.574;6.980;2023-04-24T11:51:21;15.53;;;6.90;;
1887;SDS011;944;51.574;6.980;2023-04-24T11:54:01;19.07;;;5.60;;
1887;SDS011;944;51.574;6.980;2023-04-24T11:56:33;18.30;;;5.70;;
1887;SDS011;944;51.574;6.980;2023-04-24T11:59:03;15.57;;;6.73;;
1887;SDS011;944;51.574;6.980;2023-04-24T12:01:43;11.53;;;6.33;;
1887;SDS011;944;51.574;6.980;2023-04-24T12:04:13;18.73;;;5.67;;
1887;SDS011;944;51.574;6.980;2023-04-24T12:07:01;14.90;;;4.70;;
1887;SDS011;944;51.574;6.980;2023-04-24T12:12:26;10.33;;;5.73;;
1887;SDS011;944;51.574;6.980;2023-04-24T12:15:08;11.07;;;4.57;;
1887;SDS011;944;51.574;6.980;2023-04-24T12:20:31;15.63;;;4.73;;
1887;SDS011;944;51.574;6.980;2023-04-24T12:23:00;10.73;;;4.60;;
1887;SDS011;944;51.574;6.980;2023-04-24T12:25:29;13.27;;;5.40;;
1887;SDS011;944;51.574;6.980;2023-04-24T12:31:39;11.60;;;4.70;;
1887;SDS011;944;51.574;6.980;2023-04-24T12:34:26;15.63;;;5.37;;
1887;SDS011;944;51.574;6.980;2023-04-24T12:37:11;11.27;;;5.60;;
1887;SDS011;944;51.574;6.980;2023-04-24T12:45:45;11.67;;;4.77;;
1887;SDS011;944;51.574;6.980;2023-04-24T12:48:16;8.13;;;4.83;;
1887;SDS011;944;51.574;6.980;2023-04-24T12:50:46;6.20;;;3.60;;
1887;SDS011;944;51.574;6.980;2023-04-24T12:53:21;5.27;;;2.90;;
1887;SDS011;944;51.574;6.980;2023-04-24T12:56:00;13.63;;;3.23;;
1887;SDS011;944;51.574;6.980;2023-04-24T12:58:37;6.27;;;2.83;;
1887;SDS011;944;51.574;6.980;2023-04-24T13:11:59;6.70;;;3.50;;
1887;SDS011;944;51.574;6.980;2023-04-24T13:14:46;7.70;;;3.37;;
1887;SDS011;944;51.574;6.980;2023-04-24T13:24:34;8.03;;;3.00;;
1887;SDS011;944;51.574;6.980;2023-04-24T13:28:09;8.80;;;3.23;;
1887;SDS011;944;51.574;6.980;2023-04-24T13:30:56;6.27;;;2.97;;
1887;SDS011;944;51.574;6.980;2023-04-24T13:33:50;11.27;;;3.37;;
1887;SDS011;944;51.574;6.980;2023-04-24T13:36:57;7.07;;;3.00;;
1887;SDS011;944;51.574;6.980;2023-04-24T13:39:53;5.07;;;3.03;;
1887;SDS011;944;51.574;6.980;2023-04-24T13:42:20;13.30;;;2.90;;
1887;SDS011;944;51.574;6.980;2023-04-24T14:32:10;12.63;;;3.30;;
1887;SDS011;944;51.574;6.980;2023-04-24T14:35:43;9.23;;;3.50;;
1887;SDS011;944;51.574;6.980;2023-04-24T14:46:33;5.93;;;3.63;;
1887;SDS011;944;51.574;6.980;2023-04-24T14:57:07;9.27;;;3.80;;
1887;SDS011;944;51.574;6.980;2023-04-24T15:19:16;8.53;;;2.27;;
1887;SDS011;944;51.574;6.980;2023-04-24T15:22:02;2.10;;;1.93;;
1887;SDS011;944;51.574;6.980;2023-04-24T15:24:36;2.77;;;2.00;;
1887;SDS011;944;51.574;6.980;2023-04-24T15:30:36;1.50;;;1.40;;
1887;SDS011;944;51.574;6.980;2023-04-24T15:33:10;5.17;;;1.80;;
1887;SDS011;944;51.574;6.980;2023-04-24T15:35:40;2.00;;;1.90;;
1887;SDS011;944;51.574;6.980;2023-04-24T15:38:07;2.40;;;1.60;;
1887;SDS011;944;51.574;6.980;2023-04-24T15:40:34;3.80;;;1.87;;
1887;SDS011;944;51.574;6.980;2023-04-24T15:43:01;3.50;;;2.10;;
1887;SDS011;944;51.574;6.980;2023-04-24T15:45:28;3.50;;;2.13;;
1887;SDS011;944;51.574;6.980;2023-04-24T15:47:57;3.53;;;2.10;;
1887;SDS011;944;51.574;6.980;2023-04-24T15:50:24;2.70;;;1.83;;
1887;SDS011;944;51.574;6.980;2023-04-24T15:52:54;2.27;;;1.97;;
1887;SDS011;944;51.574;6.980;2023-04-24T15:55:21;3.53;;;1.90;;
1887;SDS011;944;51.574;6.980;2023-04-24T15:57:51;5.67;;;2.30;;
1887;SDS011;944;51.574;6.980;2023-04-24T16:00:18;4.63;;;2.43;;
1887;SDS011;944;51.574;6.980;2023-04-24T16:02:45;5.70;;;2.07;;
1887;SDS011;944;51.574;6.980;2023-04-24T16:05:14;3.20;;;2.03;;
1887;SDS011;944;51.574;6.980;2023-04-24T16:07:41;3.77;;;1.93;;
1887;SDS011;944;51.574;6.980;2023-04-24T16:13:50;6.60;;;2.00;;
1887;SDS011;944;51.574;6.980;2023-04-24T16:16:17;5.43;;;2.07;;
1887;SDS011;944;51.574;6.980;2023-04-24T16:18:50;13.17;;;2.10;;
1887;SDS011;944;51.574;6.980;2023-04-24T16:21:18;10.83;;;3.10;;
1887;SDS011;944;51.574;6.980;2023-04-24T16:23:49;3.47;;;2.23;;
1887;SDS011;944;51.574;6.980;2023-04-24T16:26:17;2.43;;;2.23;;
1887;SDS011;944;51.574;6.980;2023-04-24T16:32:26;9.47;;;3.30;;
1887;SDS011;944;51.574;6.980;2023-04-24T16:34:56;3.80;;;2.33;;
1887;SDS011;944;51.574;6.980;2023-04-24T16:37:25;8.93;;;2.70;;
1887;SDS011;944;51.574;6.980;2023-04-24T16:39:57;7.70;;;2.53;;
1887;SDS011;944;51.574;6.980;2023-04-24T16:46:08;5.20;;;2.47;;
1887;SDS011;944;51.574;6.980;2023-04-24T16:48:38;7.40;;;3.03;;
1887;SDS011;944;51.574;6.980;2023-04-24T16:51:11;5.40;;;2.50;;
1887;SDS011;944;51.574;6.980;2023-04-24T16:53:38;7.07;;;3.30;;
1887;SDS011;944;51.574;6.980;2023-04-24T16:56:14;3.30;;;2.10;;
1887;SDS011;944;51.574;6.980;2023-04-24T16:58:46;4.20;;;2.67;;
1887;SDS011;944;51.574;6.980;2023-04-24T17:01:13;4.27;;;3.03;;
1887;SDS011;944;51.574;6.980;2023-04-24T17:03:41;5.97;;;2.97;;
1887;SDS011;944;51.574;6.980;2023-04-24T17:06:08;5.10;;;3.30;;
1887;SDS011;944;51.574;6.980;2023-04-24T17:08:36;5.80;;;3.20;;
1887;SDS011;944;51.574;6.980;2023-04-24T17:11:03;7.30;;;3.43;;
1887;SDS011;944;51.574;6.980;2023-04-24T17:13:33;10.23;;;3.97;;
1887;SDS011;944;51.574;6.980;2023-04-24T17:16:00;8.67;;;3.63;;
1887;SDS011;944;51.574;6.980;2023-04-24T17:18:48;6.90;;;2.97;;
1887;SDS011;944;51.574;6.980;2023-04-24T17:21:20;5.00;;;2.73;;
1887;SDS011;944;51.574;6.980;2023-04-24T17:23:47;8.80;;;3.30;;
1887;SDS011;944;51.574;6.980;2023-04-24T17:26:16;6.00;;;3.10;;
1887;SDS011;944;51.574;6.980;2023-04-24T17:28:46;8.73;;;3.27;;
1887;SDS011;944;51.574;6.980;2023-04-24T17:31:26;15.10;;;3.60;;
1887;SDS011;944;51.574;6.980;2023-04-24T17:34:00;10.80;;;3.20;;
1887;SDS011;944;51.574;6.980;2023-04-24T17:36:27;8.27;;;2.93;;
1887;SDS011;944;51.574;6.980;2023-04-24T17:38:55;9.93;;;3.60;;
1887;SDS011;944;51.574;6.980;2023-04-24T17:41:23;4.93;;;3.00;;
1887;SDS011;944;51.574;6.980;2023-04-24T17:43:54;8.23;;;3.73;;
1887;SDS011;944;51.574;6.980;2023-04-24T17:46:23;7.40;;;3.03;;
1887;SDS011;944;51.574;6.980;2023-04-24T17:48:53;13.87;;;4.00;;
1887;SDS011;944;51.574;6.980;2023-04-24T17:51:27;11.63;;;3.40;;
1887;SDS011;944;51.574;6.980;2023-04-24T18:28:53;10.63;;;4.00;;
1887;SDS011;944;51.574;6.980;2023-04-24T18:31:44;8.80;;;3.60;;
1887;SDS011;944;51.574;6.980;2023-04-24T18:34:39;15.57;;;4.70;;
1887;SDS011;944;51.574;6.980;2023-04-24T18:37:29;8.73;;;3.97;;
1887;SDS011;944;51.574;6.980;2023-04-24T18:40:09;11.23;;;3.97;;
1887;SDS011;944;51.574;6.980;2023-04-24T18:42:43;9.13;;;4.10;;
1887;SDS011;944;51.574;6.980;2023-04-24T18:45:17;17.37;;;5.53;;
1887;SDS011;944;51.574;6.980;2023-04-24T18:48:13;11.73;;;4.37;;
1887;SDS011;944;51.574;6.980;2023-04-24T18:51:16;13.40;;;4.37;;
1887;SDS011;944;51.574;6.980;2023-04-24T19:01:25;9.03;;;4.63;;
1887;SDS011;944;51.574;6.980;2023-04-24T19:04:21;17.33;;;5.10;;
1887;SDS011;944;51.574;6.980;2023-04-24T19:07:03;9.20;;;4.90;;
1887;SDS011;944;51.574;6.980;2023-04-24T19:09:52;19.50;;;4.40;;
1887;SDS011;944;51.574;6.980;2023-04-24T19:12:25;12.93;;;4.60;;
1887;SDS011;944;51.574;6.980;2023-04-24T19:15:21;13.83;;;4.80;;
1887;SDS011;944;51.574;6.980;2023-04-24T19:18:11;15.37;;;4.90;;
1887;SDS011;944;51.574;6.980;2023-04-24T19:20:47;12.80;;;5.40;;
1887;SDS011;944;51.574;6.980;2023-04-24T19:23:31;10.00;;;4.67;;
1887;SDS011;944;51.574;6.980;2023-04-24T19:26:31;16.60;;;5.00;;
1887;SDS011;944;51.574;6.980;2023-04-24T19:29:30;15.00;;;5.40;;
1887;SDS011;944;51.574;6.980;2023-04-24T19:32:12;18.20;;;5.47;;
1887;SDS011;944;51.574;6.980;2023-04-24T19:34:56;13.93;;;4.47;;
1887;SDS011;944;51.574;6.980;2023-04-24T19:37:32;13.60;;;5.27;;
1887;SDS011;944;51.574;6.980;2023-04-24T19:40:09;15.20;;;4.57;;
1887;SDS011;944;51.574;6.980;2023-04-24T19:42:53;13.20;;;5.00;;
1887;SDS011;944;51.574;6.980;2023-04-24T19:45:31;14.37;;;4.83;;
1887;SDS011;944;51.574;6.980;2023-04-24T19:48:22;21.87;;;5.63;;
1887;SDS011;944;51.574;6.980;2023-04-24T19:50:51;11.00;;;5.50;;
1887;SDS011;944;51.574;6.980;2023-04-24T19:53:25;10.97;;;4.60;;
1887;SDS011;944;51.574;6.980;2023-04-24T19:56:20;15.20;;;5.20;;
1887;SDS011;944;51.574;6.980;2023-04-24T20:02:16;16.50;;;4.50;;
1887;SDS011;944;51.574;6.980;2023-04-24T20:05:05;13.30;;;4.87;;
1887;SDS011;944;51.574;6.980;2023-04-24T20:08:04;12.73;;;5.00;;
1887;SDS011;944;51.574;6.980;2023-04-24T20:10:35;25.73;;;6.00;;
1887;SDS011;944;51.574;6.980;2023-04-24T20:13:19;13.40;;;5.07;;
1887;SDS011;944;51.574;6.980;2023-04-24T20:19:25;24.13;;;5.50;;
1887;SDS011;944;51.574;6.980;2023-04-24T20:22:12;13.23;;;4.53;;
1887;SDS011;944;51.574;6.980;2023-04-24T20:28:07;17.23;;;4.80;;
1887;SDS011;944;51.574;6.980;2023-04-24T20:30:51;14.57;;;5.00;;
1887;SDS011;944;51.574;6.980;2023-04-24T20:33:32;22.17;;;5.47;;
1887;SDS011;944;51.574;6.980;2023-04-24T20:39:23;16.83;;;5.10;;
1887;SDS011;944;51.574;6.980;2023-04-24T20:42:48;20.00;;;5.97;;
1887;SDS011;944;51.574;6.980;2023-04-24T20:45:25;16.67;;;5.80;;
1887;SDS011;944;51.574;6.980;2023-04-24T20:48:03;22.10;;;5.87;;
1887;SDS011;944;51.574;6.980;2023-04-24T20:50:44;14.33;;;5.20;;
1887;SDS011;944;51.574;6.980;2023-04-24T20:53:20;19.63;;;5.80;;
1887;SDS011;944;51.574;6.980;2023-04-24T20:55:58;16.80;;;4.40;;
1887;SDS011;944;51.574;6.980;2023-04-24T20:58:37;19.30;;;5.03;;
1887;SDS011;944;51.574;6.980;2023-04-24T21:01:09;15.00;;;4.90;;
1887;SDS011;944;51.574;6.980;2023-04-24T21:03:57;16.07;;;4.97;;
1887;SDS011;944;51.574;6.980;2023-04-24T21:06:27;13.67;;;5.53;;
1887;SDS011;944;51.574;6.980;2023-04-24T21:08:57;13.10;;;5.30;;
1887;SDS011;944;51.574;6.980;2023-04-24T21:11:40;14.27;;;5.50;;
1887;SDS011;944;51.574;6.980;2023-04-24T21:14:27;16.23;;;5.13;;
1887;SDS011;944;51.574;6.980;2023-04-24T21:17:02;13.43;;;5.50;;
1887;SDS011;944;51.574;6.980;2023-04-24T21:19:34;13.67;;;5.73;;
1887;SDS011;944;51.574;6.980;2023-04-24T21:22:12;20.20;;;7.60;;
1887;SDS011;944;51.574;6.980;2023-04-24T21:28:40;18.93;;;6.70;;
1887;SDS011;944;51.574;6.980;2023-04-24T21:34:14;15.87;;;7.20;;
1887;SDS011;944;51.574;6.980;2023-04-24T21:36:45;17.43;;;6.27;;
1887;SDS011;944;51.574;6.980;2023-04-24T21:39:12;19.30;;;6.30;;
1887;SDS011;944;51.574;6.980;2023-04-24T21:41:41;15.63;;;5.53;;
1887;SDS011;944;51.574;6.980;2023-04-24T21:47:27;19.90;;;6.40;;
1887;SDS011;944;51.574;6.980;2023-04-24T21:53:35;20.27;;;6.07;;
1887;SDS011;944;51.574;6.980;2023-04-24T21:56:04;14.00;;;6.10;;
1887;SDS011;944;51.574;6.980;2023-04-24T21:58:36;19.90;;;6.40;;
1887;SDS011;944;51.574;6.980;2023-04-24T22:01:07;23.50;;;6.77;;
1887;SDS011;944;51.574;6.980;2023-04-24T22:03:40;23.63;;;7.00;;
1887;SDS011;944;51.574;6.980;2023-04-24T22:06:19;28.43;;;7.30;;
1887;SDS011;944;51.574;6.980;2023-04-24T22:08:55;15.40;;;6.80;;
1887;SDS011;944;51.574;6.980;2023-04-24T22:12:32;15.50;;;6.70;;
1887;SDS011;944;51.574;6.980;2023-04-24T22:14:25;17.47;;;7.50;;
1887;SDS011;944;51.574;6.980;2023-04-24T22:16:53;23.00;;;7.70;;
1887;SDS011;944;51.574;6.980;2023-04-24T22:19:26;21.07;;;6.73;;
1887;SDS011;944;51.574;6.980;2023-04-24T22:22:01;25.30;;;7.97;;
1887;SDS011;944;51.574;6.980;2023-04-24T22:24:43;14.67;;;6.50;;
1887;SDS011;944;51.574;6.980;2023-04-24T22:27:18;29.43;;;8.40;;
1887;SDS011;944;51.574;6.980;2023-04-24T22:32:27;28.20;;;7.10;;
1887;SDS011;944;51.574;6.980;2023-04-24T22:37:57;17.70;;;7.40;;
1887;SDS011;944;51.574;6.980;2023-04-24T22:40:36;18.07;;;6.57;;
1887;SDS011;944;51.574;6.980;2023-04-24T22:43:18;22.90;;;7.33;;
1887;SDS011;944;51.574;6.980;2023-04-24T22:45:48;30.27;;;7.90;;
1887;SDS011;944;51.574;6.980;2023-04-24T22:48:21;21.47;;;7.03;;
1887;SDS011;944;51.574;6.980;2023-04-24T22:50:52;15.20;;;6.53;;
1887;SDS011;944;51.574;6.980;2023-04-24T22:53:25;19.00;;;6.97;;
1887;SDS011;944;51.574;6.980;2023-04-24T22:59:27;19.87;;;6.60;;
1887;SDS011;944;51.574;6.980;2023-04-24T23:01:55;21.00;;;6.37;;
1887;SDS011;944;51.574;6.980;2023-04-24T23:04:23;22.47;;;6.67;;
1887;SDS011;944;51.574;6.980;2023-04-24T23:07:00;21.53;;;7.40;;
1887;SDS011;944;51.574;6.980;2023-04-24T23:09:34;22.93;;;6.70;;
1887;SDS011;944;51.574;6.980;2023-04-24T23:12:01;26.13;;;7.50;;
1887;SDS011;944;51.574;6.980;2023-04-24T23:14:40;23.40;;;7.53;;
1887;SDS011;944;51.574;6.980;2023-04-24T23:17:14;15.50;;;6.10;;
1887;SDS011;944;51.574;6.980;2023-04-24T23:22:42;23.83;;;6.70;;
1887;SDS011;944;51.574;6.980;2023-04-24T23:25:09;27.23;;;6.93;;
1887;SDS011;944;51.574;6.980;2023-04-24T23:27:39;15.87;;;6.60;;
1887;SDS011;944;51.574;6.980;2023-04-24T23:30:25;19.23;;;7.13;;
1887;SDS011;944;51.574;6.980;2023-04-24T23:33:33;14.40;;;6.23;;
1887;SDS011;944;51.574;6.980;2023-04-24T23:36:05;22.13;;;6.50;;
1887;SDS011;944;51.574;6.980;2023-04-24T23:38:38;20.63;;;5.90;;
1887;SDS011;944;51.574;6.980;2023-04-24T23:41:16;14.63;;;6.43;;
1887;SDS011;944;51.574;6.980;2023-04-24T23:43:43;23.93;;;7.13;;
1887;SDS011;944;51.574;6.980;2023-04-24T23:46:19;21.63;;;6.73;;
1887;SDS011;944;51.574;6.980;2023-04-24T23:48:58;22.63;;;6.07;;
1887;SDS011;944;51.574;6.980;2023-04-24T23:51:28;20.37;;;7.03;;
1887;SDS011;944;51.574;6.980;2023-04-24T23:54:13;20.37;;;6.50;;
1887;SDS011;944;51.574;6.980;2023-04-24T23:56:52;20.17;;;6.23;;
1887;SDS011;944;51.574;6.980;2023-04-24T23:59:21;12.33;;;6.50;;
